Time;durP1;ratioP1;P1;durP2;ratioP2;P2;SDS_P1;SDS_P2;PMS_P1;PMS_P2;Temp;Humidity;BMP_temperature;BMP_pressure;BME280_temperature;BME280_humidity;BME280_pressure;Samples;Min_cycle;Max_cycle;Signal;HPM_P1;HPM_P2
2022/12/31 00:01:44;;;;;;;1999.90;999.90;;;12.90;99.90;;;;;;5003221;28;20919;-69
2022/12/31 00:04:12;;;;;;;1999.90;999.90;;;12.90;99.90;;;;;;5009444;28;20932;-71
2022/12/31 00:06:39;;;;;;;1999.90;999.90;;;12.90;99.90;;;;;;5005694;28;20445;-70
2022/12/31 00:09:07;;;;;;;1999.90;999.90;;;12.90;99.90;;;;;;5001880;28;20432;-70
2022/12/31 00:11:35;;;;;;;1999.90;999.90;;;12.90;99.90;;;;;;5005603;28;20436;-70
2022/12/31 00:14:02;;;;;;;1999.90;999.90;;;13.00;99.90;;;;;;4999695;28;20481;-70
2022/12/31 00:16:32;;;;;;;1999.90;999.90;;;13.10;99.90;;;;;;5003924;28;20450;-70
2022/12/31 00:19:00;;;;;;;1999.90;999.90;;;13.30;99.90;;;;;;5001687;28;20443;-70
2022/12/31 00:21:29;;;;;;;1999.90;999.90;;;13.30;99.90;;;;;;5006958;28;20437;-71
2022/12/31 00:23:56;;;;;;;1999.90;999.90;;;13.30;99.90;;;;;;5001179;28;20438;-73
2022/12/31 00:26:26;;;;;;;1999.90;999.90;;;13.30;99.90;;;;;;5005930;28;20486;-69
2022/12/31 00:28:53;;;;;;;1999.90;999.90;;;13.20;99.90;;;;;;5008555;28;20961;-68
2022/12/31 00:31:22;;;;;;;1999.90;999.90;;;13.30;99.90;;;;;;5008805;28;20436;-69
2022/12/31 00:33:48;;;;;;;1999.90;999.90;;;13.30;99.90;;;;;;5005826;28;20435;-70
2022/12/31 00:36:17;;;;;;;1999.90;999.90;;;13.30;99.90;;;;;;5008307;28;20436;-69
2022/12/31 00:38:47;;;;;;;1999.90;999.90;;;13.40;99.90;;;;;;5006475;28;20544;-71
2022/12/31 00:41:15;;;;;;;1999.90;999.90;;;13.40;99.90;;;;;;5006739;28;20433;-70
2022/12/31 00:43:42;;;;;;;1999.90;999.90;;;13.60;99.90;;;;;;5003952;28;20433;-70
2022/12/31 00:46:09;;;;;;;1999.90;999.90;;;13.60;99.90;;;;;;5006335;28;20436;-70
2022/12/31 00:48:38;;;;;;;1999.90;999.90;;;13.70;99.90;;;;;;5006766;28;20459;-70
2022/12/31 00:51:07;;;;;;;1999.90;999.90;;;13.80;99.90;;;;;;5004701;28;20483;-72
2022/12/31 00:53:34;;;;;;;1999.90;999.90;;;13.80;99.90;;;;;;5004500;28;20445;-70
2022/12/31 00:56:04;;;;;;;1999.90;999.90;;;13.70;99.90;;;;;;5007155;28;20436;-70
2022/12/31 00:58:31;;;;;;;1999.90;999.90;;;13.70;99.90;;;;;;5007561;28;20432;-70
2022/12/31 01:00:58;;;;;;;1999.90;999.90;;;13.60;99.90;;;;;;5005738;28;20475;-71
2022/12/31 01:03:25;;;;;;;1999.90;999.90;;;13.50;99.90;;;;;;5004436;28;20445;-71
2022/12/31 01:05:52;;;;;;;1999.90;999.90;;;13.50;99.90;;;;;;5006458;28;20875;-73
2022/12/31 01:08:18;;;;;;;1999.90;999.90;;;13.50;99.90;;;;;;5007905;28;22081;-73
2022/12/31 01:13:34;;;;;;;1999.90;999.90;;;13.30;99.90;;;;;;5002910;28;20780;-70
2022/12/31 01:16:07;;;;;;;1999.90;999.90;;;13.30;99.90;;;;;;5001282;28;20433;-70
2022/12/31 01:18:33;;;;;;;1999.90;999.90;;;13.40;99.90;;;;;;5005740;28;20432;-69
2022/12/31 01:21:02;;;;;;;1999.90;999.90;;;13.50;99.90;;;;;;5009131;28;20433;-71
2022/12/31 01:23:29;;;;;;;1999.90;999.90;;;13.60;99.90;;;;;;5004347;28;20562;-72
2022/12/31 01:25:56;;;;;;;1999.90;999.90;;;13.60;99.90;;;;;;5000683;28;20423;-70
2022/12/31 01:28:23;;;;;;;1999.90;999.90;;;13.60;99.90;;;;;;5008563;28;20897;-70
2022/12/31 01:30:51;;;;;;;1999.90;999.90;;;13.60;99.90;;;;;;5007028;28;20433;-72
2022/12/31 01:33:17;;;;;;;1999.90;999.90;;;13.50;99.90;;;;;;5006659;28;21096;-70
2022/12/31 01:35:44;;;;;;;1999.90;999.90;;;13.50;99.90;;;;;;5000775;28;22395;-70
2022/12/31 01:38:11;;;;;;;1999.90;999.90;;;13.50;99.90;;;;;;5004849;28;20432;-70
2022/12/31 01:40:39;;;;;;;1999.90;999.90;;;13.50;99.90;;;;;;5003588;28;20879;-70
2022/12/31 01:43:14;;;;;;;1999.90;999.90;;;13.50;99.90;;;;;;5007182;28;20436;-70
2022/12/31 01:45:43;;;;;;;1999.90;999.90;;;13.50;99.90;;;;;;5001766;28;20446;-71
2022/12/31 01:48:13;;;;;;;1999.90;999.90;;;13.20;99.90;;;;;;4999381;28;20422;-70
2022/12/31 01:50:42;;;;;;;1999.90;999.90;;;13.70;99.90;;;;;;4991641;28;20417;-70
2022/12/31 01:53:11;;;;;;;1999.90;999.90;;;13.90;99.90;;;;;;5008920;28;20487;-73
2022/12/31 01:55:44;;;;;;;1999.90;999.90;;;13.80;99.90;;;;;;5010938;28;20808;-75
2022/12/31 01:58:14;;;;;;;1999.90;999.90;;;13.60;99.90;;;;;;5005984;28;20440;-73
2022/12/31 02:00:40;;;;;;;1999.90;999.90;;;13.60;99.90;;;;;;5004236;28;20468;-73
2022/12/31 02:03:08;;;;;;;1999.90;999.90;;;13.70;99.90;;;;;;5011792;28;20922;-73
2022/12/31 02:05:41;;;;;;;1999.90;999.90;;;13.70;99.90;;;;;;5011298;28;20487;-78
2022/12/31 02:08:07;;;;;;;1999.90;999.90;;;13.70;99.90;;;;;;5010293;28;20908;-75
2022/12/31 02:10:34;;;;;;;1999.90;999.90;;;13.80;99.90;;;;;;5007730;28;20487;-73
2022/12/31 02:13:01;;;;;;;1999.90;999.90;;;13.90;99.90;;;;;;5008618;28;20434;-73
2022/12/31 02:15:38;;;;;;;1999.90;999.90;;;14.20;99.90;;;;;;5000082;28;20483;-71
2022/12/31 02:18:16;;;;;;;1999.90;999.90;;;14.10;99.90;;;;;;5008640;28;20486;-74
2022/12/31 02:21:25;;;;;;;1999.90;999.90;;;14.10;99.90;;;;;;5009409;28;20937;-69
2022/12/31 02:24:21;;;;;;;1999.90;999.90;;;14.10;99.90;;;;;;5003066;28;20500;-70
2022/12/31 02:26:58;;;;;;;1999.90;999.90;;;14.20;99.90;;;;;;4973653;28;20724;-70
2022/12/31 02:29:57;;;;;;;1999.90;999.90;;;14.20;99.90;;;;;;5005062;28;20438;-67
2022/12/31 02:32:30;;;;;;;1999.90;999.90;;;14.20;99.90;;;;;;5008699;28;20437;-70
2022/12/31 02:35:01;;;;;;;1999.90;999.90;;;14.20;99.90;;;;;;5009544;28;20438;-71
2022/12/31 02:37:30;;;;;;;1999.90;999.90;;;14.20;99.90;;;;;;5009622;28;20440;-70
2022/12/31 02:39:57;;;;;;;1999.90;999.90;;;14.30;99.90;;;;;;5009741;28;20856;-69
2022/12/31 02:42:24;;;;;;;1999.90;999.90;;;14.30;99.90;;;;;;5011374;28;20482;-70
2022/12/31 02:44:50;;;;;;;1999.90;999.90;;;14.30;99.90;;;;;;5008799;28;20464;-71
2022/12/31 02:47:26;;;;;;;1999.90;999.90;;;14.30;99.90;;;;;;5011859;28;20494;-73
2022/12/31 02:50:07;;;;;;;1999.90;999.90;;;14.40;99.90;;;;;;5007280;28;20538;-73
2022/12/31 02:52:45;;;;;;;1999.90;999.90;;;14.40;99.90;;;;;;5007610;28;20436;-72
2022/12/31 02:55:17;;;;;;;1999.90;999.90;;;14.30;99.90;;;;;;5011090;28;20429;-73
2022/12/31 02:57:53;;;;;;;1999.90;999.90;;;14.30;99.90;;;;;;5006191;28;20498;-73
2022/12/31 03:03:07;;;;;;;1999.90;999.90;;;14.60;99.90;;;;;;4999887;28;20430;-74
2022/12/31 03:05:40;;;;;;;1999.90;999.90;;;14.40;99.90;;;;;;5008228;28;20476;-72
2022/12/31 03:08:07;;;;;;;1999.90;999.90;;;14.40;99.90;;;;;;5009764;28;20432;-72
2022/12/31 03:10:34;;;;;;;1999.90;999.90;;;14.30;99.90;;;;;;5005476;28;20980;-72
2022/12/31 03:13:00;;;;;;;1999.90;999.90;;;14.20;99.90;;;;;;5010236;28;20495;-73
2022/12/31 03:15:29;;;;;;;1999.90;999.90;;;14.00;99.90;;;;;;5007166;28;20436;-73
2022/12/31 03:17:58;;;;;;;1999.90;999.90;;;14.00;99.90;;;;;;5008242;28;20443;-74
2022/12/31 03:23:17;;;;;;;1999.90;999.90;;;13.70;99.90;;;;;;5004884;28;20494;-73
2022/12/31 03:25:43;;;;;;;1999.90;999.90;;;13.50;99.90;;;;;;5006606;28;20956;-75
2022/12/31 03:28:13;;;;;;;1999.90;999.90;;;13.40;99.90;;;;;;5007166;28;20432;-68
2022/12/31 03:30:43;;;;;;;1999.90;999.90;;;13.30;99.90;;;;;;5007801;28;20919;-72
2022/12/31 03:33:10;;;;;;;1999.90;999.90;;;13.30;99.90;;;;;;5010233;28;20789;-73
2022/12/31 03:35:38;;;;;;;1999.90;999.90;;;13.40;99.90;;;;;;5006890;28;20432;-73
2022/12/31 03:38:05;;;;;;;1999.90;999.90;;;13.40;99.90;;;;;;5009132;28;20436;-73
2022/12/31 03:40:36;;;;;;;1999.90;999.90;;;13.50;99.90;;;;;;5003322;28;20496;-73
2022/12/31 03:43:03;;;;;;;1999.90;999.90;;;13.70;99.90;;;;;;5001447;28;20937;-73
2022/12/31 03:45:30;;;;;;;1999.90;999.90;;;13.80;99.90;;;;;;5008397;28;20436;-73
2022/12/31 03:47:56;;;;;;;1999.90;999.90;;;13.80;99.90;;;;;;5006614;28;20848;-73
2022/12/31 03:50:23;;;;;;;1999.90;999.90;;;13.90;99.90;;;;;;5005063;28;20436;-74
2022/12/31 03:52:50;;;;;;;1999.90;999.90;;;13.80;99.90;;;;;;5007833;28;20916;-75
2022/12/31 03:55:16;;;;;;;1999.90;999.90;;;13.90;99.90;;;;;;5006907;28;20508;-74
2022/12/31 03:57:45;;;;;;;1999.90;999.90;;;13.90;99.90;;;;;;5007943;28;20494;-73
2022/12/31 04:00:16;;;;;;;1999.90;999.90;;;14.10;99.90;;;;;;5009936;28;20582;-70
2022/12/31 04:02:42;;;;;;;1999.90;999.90;;;14.30;99.90;;;;;;5007109;28;20500;-70
2022/12/31 04:05:10;;;;;;;1999.90;999.90;;;14.40;99.90;;;;;;5004505;28;20469;-71
2022/12/31 04:07:37;;;;;;;1999.90;999.90;;;14.50;99.90;;;;;;5001505;28;20534;-70
2022/12/31 04:10:05;;;;;;;1999.90;999.90;;;14.60;99.90;;;;;;5009654;28;20532;-70
2022/12/31 04:12:32;;;;;;;1999.90;999.90;;;14.60;99.90;;;;;;5007980;28;20848;-71
2022/12/31 04:15:00;;;;;;;1999.90;999.90;;;14.60;99.90;;;;;;5007573;28;20432;-70
2022/12/31 04:17:27;;;;;;;1999.90;999.90;;;14.60;99.90;;;;;;5007077;28;20852;-70
2022/12/31 04:19:53;;;;;;;1999.90;999.90;;;14.70;99.90;;;;;;5002337;28;20980;-70
2022/12/31 04:22:20;;;;;;;1999.90;999.90;;;14.70;99.90;;;;;;5011252;28;20494;-72
2022/12/31 04:24:47;;;;;;;1999.90;999.90;;;14.70;99.90;;;;;;5007977;28;20437;-70
2022/12/31 04:27:14;;;;;;;1999.90;999.90;;;14.90;99.90;;;;;;5002996;28;20433;-70
2022/12/31 04:29:41;;;;;;;1999.90;999.90;;;14.90;99.90;;;;;;5002282;28;20438;-68
2022/12/31 04:32:09;;;;;;;1999.90;999.90;;;14.90;99.90;;;;;;5009000;28;20459;-73
2022/12/31 04:34:36;;;;;;;1999.90;999.90;;;14.90;99.90;;;;;;5006940;28;20856;-74
2022/12/31 04:37:03;;;;;;;1999.90;999.90;;;15.10;99.90;;;;;;5006310;28;20467;-70
2022/12/31 04:39:30;;;;;;;1999.90;999.90;;;15.20;99.90;;;;;;5004046;28;20437;-70
2022/12/31 04:41:56;;;;;;;1999.90;999.90;;;15.20;99.90;;;;;;5005540;28;20440;-72
2022/12/31 04:44:23;;;;;;;1999.90;999.90;;;15.20;99.90;;;;;;5006906;28;20482;-72
2022/12/31 04:46:50;;;;;;;1999.90;999.90;;;15.20;99.90;;;;;;5002849;28;20442;-72
2022/12/31 04:49:18;;;;;;;1999.90;999.90;;;15.20;99.90;;;;;;5008259;28;20436;-72
2022/12/31 04:51:44;;;;;;;1999.90;999.90;;;15.20;99.90;;;;;;5007571;28;20453;-73
2022/12/31 04:54:11;;;;;;;1999.90;999.90;;;15.30;99.90;;;;;;5007511;28;20437;-72
2022/12/31 04:56:38;;;;;;;1999.90;999.90;;;15.50;99.90;;;;;;5008024;28;21395;-74
2022/12/31 04:59:06;;;;;;;1999.90;999.90;;;15.50;99.90;;;;;;5003839;28;20436;-73
2022/12/31 05:01:32;;;;;;;1999.90;999.90;;;15.50;99.90;;;;;;5001744;28;20526;-73
2022/12/31 05:03:59;;;;;;;1999.90;999.90;;;15.50;99.90;;;;;;5010640;28;20959;-70
2022/12/31 05:06:27;;;;;;;1999.90;999.90;;;15.70;99.90;;;;;;5000583;28;20428;-71
2022/12/31 05:08:54;;;;;;;1999.90;999.90;;;15.80;99.90;;;;;;4999135;28;20442;-68
2022/12/31 05:11:20;;;;;;;1999.90;999.90;;;15.90;99.90;;;;;;5002229;28;20437;-70
2022/12/31 05:13:47;;;;;;;1999.90;999.90;;;15.80;99.90;;;;;;5000108;28;20429;-69
2022/12/31 05:16:14;;;;;;;1999.90;999.90;;;15.70;99.90;;;;;;5005438;28;20482;-70
2022/12/31 05:18:40;;;;;;;1999.90;999.90;;;15.60;99.90;;;;;;5008465;28;20936;-72
2022/12/31 05:21:07;;;;;;;1999.90;999.90;;;15.60;99.90;;;;;;5004554;28;20429;-71
2022/12/31 05:23:35;;;;;;;1999.90;999.90;;;15.60;99.90;;;;;;4999290;28;20498;-70
2022/12/31 05:26:02;;;;;;;1999.90;999.90;;;15.70;99.90;;;;;;5004848;28;21285;-70
2022/12/31 05:28:28;;;;;;;1999.90;999.90;;;15.70;99.90;;;;;;5001031;28;20495;-70
2022/12/31 05:30:55;;;;;;;1999.90;999.90;;;15.70;99.90;;;;;;5005369;28;20433;-70
2022/12/31 05:33:22;;;;;;;1999.90;999.90;;;15.70;99.90;;;;;;5005281;28;20475;-70
2022/12/31 05:35:49;;;;;;;1999.90;999.90;;;15.80;99.90;;;;;;5009502;28;20483;-69
2022/12/31 05:38:16;;;;;;;1999.90;999.90;;;15.80;99.90;;;;;;4991824;28;20910;-72
2022/12/31 05:40:44;;;;;;;1999.90;999.90;;;15.80;99.90;;;;;;5007655;28;20445;-70
2022/12/31 05:43:11;;;;;;;1999.90;999.90;;;15.90;99.90;;;;;;5005606;28;20441;-70
2022/12/31 05:45:37;;;;;;;1999.90;999.90;;;16.00;99.90;;;;;;5001780;28;20924;-73
2022/12/31 05:48:04;;;;;;;1999.90;999.90;;;15.90;99.90;;;;;;5002924;28;20455;-69
2022/12/31 05:50:31;;;;;;;1999.90;999.90;;;16.00;99.90;;;;;;5001313;28;20441;-69
2022/12/31 05:52:58;;;;;;;1999.90;999.90;;;16.00;99.90;;;;;;5002198;28;20930;-70
2022/12/31 05:55:24;;;;;;;1999.90;999.90;;;15.90;99.90;;;;;;5000549;28;20428;-70
2022/12/31 05:57:52;;;;;;;1999.90;999.90;;;15.90;99.90;;;;;;5005929;28;20486;-70
2022/12/31 06:00:19;;;;;;;1999.90;999.90;;;15.90;99.90;;;;;;5001916;28;21228;-70
2022/12/31 06:02:46;;;;;;;1999.90;999.90;;;16.00;99.90;;;;;;5000336;28;20850;-70
2022/12/31 06:05:12;;;;;;;1999.90;999.90;;;16.00;99.90;;;;;;5003565;28;20434;-70
2022/12/31 06:07:39;;;;;;;1999.90;999.90;;;15.90;99.90;;;;;;5004798;28;20446;-69
2022/12/31 06:10:06;;;;;;;1999.90;999.90;;;15.80;99.90;;;;;;5005490;28;20497;-70
2022/12/31 06:12:34;;;;;;;1999.90;999.90;;;15.80;99.90;;;;;;5002052;28;20441;-70
2022/12/31 06:15:02;;;;;;;1999.90;999.90;;;15.70;99.90;;;;;;5003362;28;20440;-69
2022/12/31 06:17:31;;;;;;;1999.90;999.90;;;15.60;99.90;;;;;;5001504;28;20432;-72
2022/12/31 06:19:58;;;;;;;1999.90;999.90;;;15.60;99.90;;;;;;5001665;28;20447;-69
2022/12/31 06:22:24;;;;;;;1999.90;999.90;;;15.60;99.90;;;;;;5006691;28;20483;-70
2022/12/31 06:24:51;;;;;;;1999.90;999.90;;;15.50;99.90;;;;;;4998642;28;20438;-70
2022/12/31 06:27:18;;;;;;;1999.90;999.90;;;15.50;99.90;;;;;;5004731;28;20432;-70
2022/12/31 06:29:44;;;;;;;1999.90;999.90;;;15.60;99.90;;;;;;5003543;28;20483;-70
2022/12/31 06:32:12;;;;;;;1999.90;999.90;;;15.50;99.90;;;;;;5002134;28;20485;-67
2022/12/31 06:34:39;;;;;;;1999.90;999.90;;;15.50;99.90;;;;;;5001213;28;20932;-67
2022/12/31 06:37:05;;;;;;;1999.90;999.90;;;15.60;99.90;;;;;;4999586;28;20433;-66
2022/12/31 06:39:32;;;;;;;1999.90;999.90;;;15.60;99.90;;;;;;5004735;28;20433;-70
2022/12/31 06:41:59;;;;;;;1999.90;999.90;;;15.60;99.90;;;;;;5004999;28;20871;-71
2022/12/31 06:44:25;;;;;;;1999.90;999.90;;;15.70;99.90;;;;;;5006685;28;20518;-70
2022/12/31 06:46:52;;;;;;;1999.90;999.90;;;15.60;99.90;;;;;;5000682;28;20442;-69
2022/12/31 06:49:20;;;;;;;1999.90;999.90;;;15.70;99.90;;;;;;5005797;28;20483;-70
2022/12/31 06:51:47;;;;;;;1999.90;999.90;;;15.70;99.90;;;;;;5002870;28;20439;-72
2022/12/31 06:54:13;;;;;;;1999.90;999.90;;;15.70;99.90;;;;;;5004833;28;20508;-70
2022/12/31 06:56:41;;;;;;;1999.90;999.90;;;15.70;99.90;;;;;;5005483;28;20491;-71
2022/12/31 06:59:24;;;;;;;1999.90;999.90;;;15.70;99.90;;;;;;5008875;28;20437;-69
2022/12/31 07:02:03;;;;;;;1999.90;999.90;;;15.70;99.90;;;;;;5000821;28;20545;-70
2022/12/31 07:05:05;;;;;;;1999.90;999.90;;;15.80;99.90;;;;;;5004563;28;20437;-69
2022/12/31 07:07:38;;;;;;;1999.90;999.90;;;15.80;99.90;;;;;;5002761;28;20434;-69
2022/12/31 07:10:16;;;;;;;1999.90;999.90;;;15.70;99.90;;;;;;5005645;28;20440;-69
2022/12/31 07:13:00;;;;;;;1999.90;999.90;;;15.80;99.90;;;;;;5009030;28;20467;-70
2022/12/31 07:15:41;;;;;;;1999.90;999.90;;;15.70;99.90;;;;;;5003806;28;20491;-69
2022/12/31 07:18:18;;;;;;;1999.90;999.90;;;15.70;99.90;;;;;;5002862;28;20500;-70
2022/12/31 07:20:46;;;;;;;1999.90;999.90;;;15.60;99.90;;;;;;5002850;28;20859;-71
2022/12/31 07:23:14;;;;;;;1999.90;999.90;;;15.80;99.90;;;;;;5006055;28;20437;-70
2022/12/31 07:25:51;;;;;;;1999.90;999.90;;;15.70;99.90;;;;;;5001436;28;20495;-69
2022/12/31 07:28:24;;;;;;;1999.90;999.90;;;15.70;99.90;;;;;;5005240;28;20803;-70
2022/12/31 07:31:00;;;;;;;1999.90;999.90;;;15.70;99.90;;;;;;5005260;28;20924;-70
2022/12/31 07:33:37;;;;;;;1999.90;999.90;;;15.70;99.90;;;;;;5009336;28;20440;-70
2022/12/31 07:36:16;;;;;;;1999.90;999.90;;;15.80;99.90;;;;;;5004898;28;20439;-69
2022/12/31 07:38:52;;;;;;;1999.90;999.90;;;15.80;99.90;;;;;;5002091;28;20438;-72
2022/12/31 07:41:34;;;;;;;1999.90;999.90;;;15.90;99.90;;;;;;5008516;28;20499;-71
2022/12/31 07:44:07;;;;;;;1999.90;999.90;;;15.90;99.90;;;;;;5006830;28;20437;-70
2022/12/31 07:46:46;;;;;;;1999.90;999.90;;;16.00;99.90;;;;;;5001644;28;20434;-70
2022/12/31 07:49:14;;;;;;;1999.90;999.90;;;16.10;99.90;;;;;;4992556;28;20419;-70
2022/12/31 07:51:42;;;;;;;1999.90;999.90;;;16.00;99.90;;;;;;4992628;28;20472;-70
2022/12/31 07:54:10;;;;;;;1999.90;999.90;;;16.10;99.90;;;;;;4992568;28;20899;-70
2022/12/31 07:56:36;;;;;;;1999.90;999.90;;;16.10;99.90;;;;;;4992746;28;20410;-71
2022/12/31 07:59:13;;;;;;;1999.90;999.90;;;16.10;99.90;;;;;;5018690;28;20432;-69
2022/12/31 08:01:46;;;;;;;1999.90;999.90;;;16.10;99.90;;;;;;5031592;28;20422;-70
2022/12/31 08:04:24;;;;;;;1999.90;999.90;;;16.10;99.90;;;;;;5016401;28;20477;-70
2022/12/31 08:07:01;;;;;;;1999.90;999.90;;;16.10;99.90;;;;;;5006072;28;20500;-70
2022/12/31 08:09:41;;;;;;;1999.90;999.90;;;16.20;99.90;;;;;;5006259;28;20947;-70
2022/12/31 08:12:08;;;;;;;1999.90;999.90;;;16.10;99.90;;;;;;5004264;28;20441;-70
2022/12/31 08:14:42;;;;;;;1999.90;999.90;;;16.10;99.90;;;;;;5008716;28;20495;-73
2022/12/31 08:17:11;;;;;;;1999.90;999.90;;;16.00;99.90;;;;;;5004856;28;20428;-69
2022/12/31 08:19:38;;;;;;;1999.90;999.90;;;16.00;99.90;;;;;;5003504;28;20433;-70
2022/12/31 08:22:29;;;;;;;1999.90;999.90;;;15.90;99.90;;;;;;5004418;28;20440;-69
2022/12/31 08:25:14;;;;;;;1999.90;999.90;;;15.90;99.90;;;;;;5003522;28;20527;-72
2022/12/31 08:27:48;;;;;;;1999.90;999.90;;;15.80;99.90;;;;;;5007750;28;20428;-71
2022/12/31 08:30:17;;;;;;;1999.90;999.90;;;15.80;99.90;;;;;;5003719;28;20917;-70
2022/12/31 08:32:49;;;;;;;1999.90;999.90;;;15.80;99.90;;;;;;5005681;28;20980;-69
2022/12/31 08:35:33;;;;;;;1999.90;999.90;;;15.70;99.90;;;;;;5009347;28;20432;-71
2022/12/31 08:38:08;;;;;;;1999.90;999.90;;;15.80;99.90;;;;;;5005637;28;20432;-70
2022/12/31 08:40:47;;;;;;;1999.90;999.90;;;15.90;99.90;;;;;;5003667;28;20794;-69
2022/12/31 08:43:26;;;;;;;1999.90;999.90;;;15.90;99.90;;;;;;5008394;28;20437;-71
2022/12/31 08:45:53;;;;;;;1999.90;999.90;;;16.00;99.90;;;;;;5004005;28;20492;-71
2022/12/31 08:48:28;;;;;;;1999.90;999.90;;;16.00;99.90;;;;;;5003436;28;20436;-69
2022/12/31 08:50:56;;;;;;;1999.90;999.90;;;16.00;99.90;;;;;;5003942;28;20513;-69
2022/12/31 08:53:23;;;;;;;1999.90;999.90;;;16.10;99.90;;;;;;5006148;28;20436;-70
2022/12/31 08:55:57;;;;;;;1999.90;999.90;;;16.20;99.90;;;;;;5006710;28;20785;-69
2022/12/31 08:58:38;;;;;;;1999.90;999.90;;;16.30;99.90;;;;;;5003678;28;20483;-69
2022/12/31 09:01:08;;;;;;;1999.90;999.90;;;16.30;99.90;;;;;;5007671;28;20437;-70
2022/12/31 09:03:46;;;;;;;1999.90;999.90;;;16.30;99.90;;;;;;5003024;28;20929;-69
2022/12/31 09:06:19;;;;;;;1999.90;999.90;;;16.30;99.90;;;;;;5003035;28;20494;-70
2022/12/31 09:08:54;;;;;;;1999.90;999.90;;;16.40;99.90;;;;;;5006495;28;20575;-70
2022/12/31 09:11:29;;;;;;;1999.90;999.90;;;16.50;99.90;;;;;;5003785;28;20439;-70
2022/12/31 09:14:20;;;;;;;1999.90;999.90;;;16.50;99.90;;;;;;5002922;28;20512;-68
2022/12/31 09:16:54;;;;;;;1999.90;999.90;;;16.50;99.90;;;;;;5002487;28;20909;-70
2022/12/31 09:19:21;;;;;;;1999.90;999.90;;;16.50;99.90;;;;;;5002160;28;20432;-68
2022/12/31 09:21:48;;;;;;;1999.90;999.90;;;16.60;99.90;;;;;;5005180;28;20473;-70
2022/12/31 09:24:16;;;;;;;1999.90;999.90;;;16.70;99.90;;;;;;5007397;28;20510;-70
2022/12/31 09:26:54;;;;;;;1999.90;999.90;;;16.70;99.90;;;;;;5004626;28;20433;-72
2022/12/31 09:29:37;;;;;;;1999.90;999.90;;;16.70;99.90;;;;;;5002468;28;20490;-71
2022/12/31 09:32:14;;;;;;;1999.90;999.90;;;16.80;99.90;;;;;;5002298;28;20440;-69
2022/12/31 09:34:46;;;;;;;1999.90;999.90;;;17.00;99.90;;;;;;5000385;28;20438;-69
2022/12/31 09:37:17;;;;;;;1999.90;999.90;;;16.80;99.90;;;;;;4999938;28;21097;-70
2022/12/31 09:39:46;;;;;;;1999.90;999.90;;;16.90;99.90;;;;;;5002839;28;20487;-71
2022/12/31 09:42:47;;;;;;;1999.90;999.90;;;17.10;99.90;;;;;;5003891;28;20440;-69
2022/12/31 09:45:33;;;;;;;1999.90;999.90;;;17.10;99.90;;;;;;4997137;28;20842;-72
2022/12/31 09:48:30;;;;;;;1999.90;999.90;;;17.10;99.90;;;;;;4988406;28;20488;-69
2022/12/31 09:51:06;;;;;;;1999.90;999.90;;;17.10;99.90;;;;;;4985155;28;20423;-69
2022/12/31 09:53:53;;;;;;;1999.90;999.90;;;17.10;99.90;;;;;;5012083;28;20522;-67
2022/12/31 09:56:25;;;;;;;1999.90;999.90;;;17.10;99.90;;;;;;5024818;28;20423;-68
2022/12/31 09:59:02;;;;;;;1999.90;999.90;;;17.10;99.90;;;;;;5028287;28;20477;-69
2022/12/31 10:01:42;;;;;;;1999.90;999.90;;;17.10;99.90;;;;;;5028552;28;20907;-72
2022/12/31 10:04:48;;;;;;;1999.90;999.90;;;17.10;99.90;;;;;;5028438;28;20451;-69
2022/12/31 10:07:34;;;;;;;1999.90;999.90;;;17.10;99.90;;;;;;5012737;28;21165;-69
2022/12/31 10:10:09;;;;;;;1999.90;999.90;;;17.00;99.90;;;;;;5010516;28;20419;-68
2022/12/31 10:12:58;;;;;;;1999.90;999.90;;;17.10;99.90;;;;;;5006710;28;20445;-66
2022/12/31 10:16:05;;;;;;;1999.90;999.90;;;17.10;99.90;;;;;;5004652;28;20440;-69
2022/12/31 10:19:03;;;;;;;1999.90;999.90;;;17.20;99.90;;;;;;5017146;28;20433;-69
2022/12/31 10:21:48;;;;;;;1999.90;999.90;;;17.20;99.90;;;;;;5023043;28;20432;-69
2022/12/31 10:24:32;;;;;;;1999.90;999.90;;;17.20;99.90;;;;;;5025580;28;20407;-69
2022/12/31 10:27:12;;;;;;;1999.90;999.90;;;17.30;99.90;;;;;;5033585;28;20438;-69
2022/12/31 10:29:46;;;;;;;1999.90;999.90;;;17.20;99.90;;;;;;5033540;28;20811;-70
2022/12/31 10:32:20;;;;;;;1999.90;999.90;;;17.20;99.90;;;;;;5033851;28;20517;-68
2022/12/31 10:35:11;;;;;;;1999.90;999.90;;;17.20;99.90;;;;;;5033766;28;20427;-67
2022/12/31 10:37:46;;;;;;;1999.90;999.90;;;17.20;99.90;;;;;;5011000;28;20428;-71
2022/12/31 10:40:24;;;;;;;1999.90;999.90;;;17.30;99.90;;;;;;4997916;28;20432;-69
2022/12/31 10:43:22;;;;;;;1999.90;999.90;;;17.30;99.90;;;;;;4994289;28;20414;-69
2022/12/31 10:46:19;;;;;;;1999.90;999.90;;;17.40;99.90;;;;;;4994012;28;20414;-71
2022/12/31 10:49:07;;;;;;;1999.90;999.90;;;17.40;99.90;;;;;;5009074;28;20796;-68
2022/12/31 10:51:52;;;;;;;1999.90;999.90;;;17.50;99.90;;;;;;5008413;28;20436;-69
2022/12/31 10:54:36;;;;;;;1999.90;999.90;;;17.50;99.90;;;;;;5008055;28;20440;-71
2022/12/31 10:57:31;;;;;;;1999.90;999.90;;;17.60;99.90;;;;;;5006155;28;20487;-69
2022/12/31 11:00:22;;;;;;;1999.90;999.90;;;17.70;99.90;;;;;;4993700;28;20436;-69
2022/12/31 11:03:28;;;;;;;1999.90;999.90;;;17.70;99.90;;;;;;4991183;28;20432;-68
2022/12/31 11:06:25;;;;;;;1999.90;999.90;;;17.80;99.90;;;;;;5006487;28;20436;-69
2022/12/31 11:09:24;;;;;;;1999.90;999.90;;;17.80;99.90;;;;;;5007730;28;21024;-68
2022/12/31 11:11:58;;;;;;;1999.90;999.90;;;17.80;99.90;;;;;;5012725;28;20975;-70
2022/12/31 11:14:52;;;;;;;1999.90;999.90;;;17.80;99.90;;;;;;5005099;28;20471;-68
2022/12/31 11:17:31;;;;;;;1999.90;999.90;;;17.60;99.90;;;;;;5013039;28;20938;-69
2022/12/31 11:20:14;;;;;;;1999.90;999.90;;;17.40;99.90;;;;;;5012741;28;20479;-70
2022/12/31 11:22:53;;;;;;;1999.90;999.90;;;17.30;99.90;;;;;;5013190;28;20539;-71
2022/12/31 11:25:32;;;;;;;1999.90;999.90;;;17.40;99.90;;;;;;5018849;28;20442;-68
2022/12/31 11:28:12;;;;;;;1999.90;999.90;;;17.40;99.90;;;;;;5006617;28;20853;-68
2022/12/31 11:30:51;;;;;;;1999.90;999.90;;;17.50;99.90;;;;;;5011905;28;20413;-68
2022/12/31 11:33:27;;;;;;;1999.90;999.90;;;17.50;99.90;;;;;;5011677;28;20451;-68
2022/12/31 11:36:11;;;;;;;1999.90;999.90;;;17.50;99.90;;;;;;5012363;28;20893;-70
2022/12/31 11:38:45;;;;;;;1999.90;999.90;;;17.90;99.90;;;;;;5020149;28;20427;-69
2022/12/31 11:41:22;;;;;;;1999.90;999.90;;;17.50;99.90;;;;;;5028041;28;20474;-68
2022/12/31 11:43:55;;;;;;;1999.90;999.90;;;17.50;99.90;;;;;;5032298;28;20921;-69
2022/12/31 11:46:40;;;;;;;1999.90;999.90;;;17.50;99.90;;;;;;5032114;28;20415;-68
2022/12/31 11:49:16;;;;;;;1999.90;999.90;;;17.60;99.90;;;;;;5032374;28;20453;-68
2022/12/31 11:51:59;;;;;;;1999.90;999.90;;;17.60;99.90;;;;;;5030406;28;20494;-68
2022/12/31 11:54:42;;;;;;;1999.90;999.90;;;17.70;99.90;;;;;;5012531;28;20429;-69
2022/12/31 11:57:17;;;;;;;1999.90;999.90;;;17.70;99.90;;;;;;5004258;28;20463;-67
2022/12/31 11:59:44;;;;;;;1999.90;999.90;;;17.70;99.90;;;;;;5006742;28;20449;-68
2022/12/31 12:02:23;;;;;;;1999.90;999.90;;;17.60;99.90;;;;;;5008864;28;20443;-68
2022/12/31 12:04:51;;;;;;;1999.90;999.90;;;17.60;99.90;;;;;;5007245;28;20748;-67
2022/12/31 12:07:19;;;;;;;1999.90;999.90;;;17.60;99.90;;;;;;5006572;28;20436;-67
2022/12/31 12:09:47;;;;;;;1999.90;999.90;;;17.60;99.90;;;;;;5008448;28;20486;-68
2022/12/31 12:12:15;;;;;;;1999.90;999.90;;;17.50;99.90;;;;;;5008846;28;20856;-69
2022/12/31 12:14:44;;;;;;;1999.90;999.90;;;17.50;99.90;;;;;;5005591;28;20438;-69
2022/12/31 12:17:16;;;;;;;1999.90;999.90;;;17.50;99.90;;;;;;5008620;28;20432;-68
2022/12/31 12:19:45;;;;;;;1999.90;999.90;;;17.50;99.90;;;;;;5007396;28;20514;-68
2022/12/31 12:22:14;;;;;;;1999.90;999.90;;;17.40;99.90;;;;;;5003253;28;20429;-69
2022/12/31 12:24:51;;;;;;;1999.90;999.90;;;17.40;99.90;;;;;;5002863;28;20461;-69
2022/12/31 12:27:24;;;;;;;1999.90;999.90;;;17.40;99.90;;;;;;5007144;28;20851;-67
2022/12/31 12:29:50;;;;;;;1999.90;999.90;;;17.30;99.90;;;;;;5004195;28;20926;-67
2022/12/31 12:32:19;;;;;;;1999.90;999.90;;;17.30;99.90;;;;;;5011782;28;20424;-69
2022/12/31 12:34:46;;;;;;;1999.90;999.90;;;17.40;99.90;;;;;;5011706;28;20487;-68